createdAt,value
2018-01-08T00:00:43.687Z,19.95
2018-01-08T00:03:11.384Z,21.95
2018-01-08T00:05:39.030Z,22.15
2018-01-08T00:08:06.643Z,20.60
2018-01-08T00:10:34.246Z,20.73
2018-01-08T00:13:02.651Z,20.80
2018-01-08T00:15:30.335Z,20.92
2018-01-08T00:17:57.957Z,21.55
2018-01-08T00:20:25.657Z,21.75
2018-01-08T00:22:54.053Z,20.25
2018-01-08T00:25:22.462Z,21.40
2018-01-08T00:27:50.090Z,21.10
2018-01-08T00:30:18.499Z,21.17
2018-01-08T00:32:46.111Z,21.33
2018-01-08T00:35:13.764Z,20.40
2018-01-08T00:37:41.404Z,22.23
2018-01-08T00:40:09.038Z,22.25
2018-01-08T00:42:36.687Z,24.05
2018-01-08T00:45:04.356Z,21.60
2018-01-08T00:47:32.021Z,21.27
2018-01-08T00:49:59.651Z,22.40
2018-01-08T00:52:28.160Z,22.00
2018-01-08T00:54:55.787Z,22.65
2018-01-08T00:57:23.395Z,21.92
2018-01-08T00:59:51.040Z,21.40
2018-01-08T01:02:18.687Z,20.55
2018-01-08T01:04:46.343Z,23.10
2018-01-08T01:07:13.962Z,21.73
2018-01-08T01:09:41.608Z,21.92
2018-01-08T01:12:09.223Z,22.80
2018-01-08T01:14:37.610Z,21.75
2018-01-08T01:17:06.017Z,22.05
2018-01-08T01:19:33.637Z,22.35
2018-01-08T01:22:02.071Z,22.73
2018-01-08T01:24:29.680Z,22.00
2018-01-08T01:26:57.327Z,22.25
2018-01-08T01:29:24.988Z,23.70
2018-01-08T01:31:52.633Z,22.35
2018-01-08T01:34:20.294Z,21.67
2018-01-08T01:36:47.912Z,23.08
2018-01-08T01:39:15.590Z,23.20
2018-01-08T01:41:43.197Z,23.05
2018-01-08T01:44:11.615Z,23.40
2018-01-08T01:46:39.314Z,22.17
2018-01-08T01:49:18.725Z,23.58
2018-01-08T01:51:46.413Z,23.90
2018-01-08T01:54:14.000Z,23.42
2018-01-08T01:56:41.653Z,22.98
2018-01-08T01:59:09.310Z,25.00
2018-01-08T02:01:36.927Z,24.73
2018-01-08T02:04:04.539Z,23.48
2018-01-08T02:06:32.221Z,23.77
2018-01-08T02:09:00.610Z,22.27
2018-01-08T02:11:28.218Z,23.10
2018-01-08T02:13:55.875Z,22.15
2018-01-08T02:16:23.529Z,22.48
2018-01-08T02:18:51.189Z,22.08
2018-01-08T02:21:18.842Z,25.70
2018-01-08T02:23:46.535Z,22.65
2018-01-08T02:26:14.146Z,22.48
2018-01-08T02:28:42.516Z,23.83
2018-01-08T02:31:10.890Z,23.10
2018-01-08T02:33:38.549Z,25.15
2018-01-08T02:36:06.217Z,23.23
2018-01-08T02:38:33.844Z,24.30
2018-01-08T02:41:01.484Z,24.33
2018-01-08T02:43:29.070Z,23.30
2018-01-08T02:45:56.736Z,24.23
2018-01-08T02:48:24.357Z,24.23
2018-01-08T02:50:51.982Z,24.50
2018-01-08T02:53:19.661Z,24.67
2018-01-08T02:55:47.360Z,23.75
2018-01-08T02:58:15.127Z,23.98
2018-01-08T03:00:42.742Z,24.90
2018-01-08T03:03:10.392Z,23.90
2018-01-08T03:05:38.743Z,24.65
2018-01-08T03:08:06.366Z,25.40
2018-01-08T03:10:34.057Z,25.85
2018-01-08T03:13:01.687Z,23.85
2018-01-08T03:15:29.288Z,24.35
2018-01-08T03:17:56.922Z,24.73
2018-01-08T03:20:24.546Z,25.08
2018-01-08T03:22:52.216Z,23.92
2018-01-08T03:25:19.862Z,24.80
2018-01-08T03:27:47.472Z,24.92
2018-01-08T03:30:15.107Z,25.65
2018-01-08T03:32:42.750Z,25.50
2018-01-08T03:35:10.352Z,26.05
2018-01-08T03:37:50.680Z,26.00
2018-01-08T03:40:18.280Z,25.65
2018-01-08T03:42:45.892Z,25.55
2018-01-08T03:45:13.517Z,25.35
2018-01-08T03:47:41.168Z,26.00
2018-01-08T03:50:08.805Z,26.17
2018-01-08T03:52:36.456Z,24.90
2018-01-08T03:55:04.094Z,26.08
2018-01-08T03:57:31.760Z,25.60
2018-01-08T03:59:59.412Z,25.40
2018-01-08T04:02:27.033Z,26.00
2018-01-08T04:04:54.659Z,25.30
2018-01-08T04:07:23.074Z,26.92
2018-01-08T04:09:50.784Z,25.73
2018-01-08T04:12:18.405Z,24.58
2018-01-08T04:14:46.059Z,26.12
2018-01-08T04:17:13.817Z,25.02
2018-01-08T04:19:42.180Z,26.77
2018-01-08T04:22:09.795Z,27.13
2018-01-08T04:24:38.254Z,27.20
2018-01-08T04:27:05.842Z,27.40
2018-01-08T04:29:33.472Z,25.65
2018-01-08T04:32:01.098Z,25.62
2018-01-08T04:34:28.715Z,27.45
2018-01-08T04:36:57.114Z,26.90
2018-01-08T04:39:24.770Z,26.37
2018-01-08T04:41:52.409Z,28.08
2018-01-08T04:44:20.099Z,25.65
2018-01-08T04:46:47.771Z,25.35
2018-01-08T04:49:15.392Z,26.92
2018-01-08T04:51:43.788Z,26.48
2018-01-08T04:54:11.448Z,26.73
2018-01-08T04:56:39.069Z,26.40
2018-01-08T04:59:06.715Z,27.10
2018-01-08T05:01:34.336Z,26.17
2018-01-08T05:04:01.987Z,26.90
2018-01-08T05:06:30.336Z,26.25
2018-01-08T05:08:57.959Z,26.30
2018-01-08T05:11:25.857Z,25.70
2018-01-08T05:13:53.545Z,26.90
2018-01-08T05:16:21.182Z,26.20
2018-01-08T05:18:48.768Z,26.70
2018-01-08T05:21:23.375Z,25.42
2018-01-08T05:23:51.014Z,25.67
2018-01-08T05:26:18.653Z,27.40
2018-01-08T05:28:46.288Z,24.95
2018-01-08T05:31:14.652Z,26.10
2018-01-08T05:33:42.256Z,27.65
2018-01-08T05:36:09.844Z,26.95
2018-01-08T05:38:37.466Z,27.45
2018-01-08T05:41:05.064Z,27.45
2018-01-08T05:43:32.681Z,25.00
2018-01-08T05:46:00.319Z,27.85
2018-01-08T05:48:28.689Z,28.08
2018-01-08T05:50:56.291Z,27.95
2018-01-08T05:53:23.860Z,26.60
2018-01-08T05:55:51.467Z,26.40
2018-01-08T05:58:19.064Z,27.70
2018-01-08T06:00:46.686Z,26.77
2018-01-08T06:03:14.296Z,27.17
2018-01-08T06:05:41.926Z,28.10
2018-01-08T06:08:10.304Z,27.75
2018-01-08T06:10:38.676Z,28.38
2018-01-08T06:13:06.289Z,26.55
2018-01-08T06:15:33.925Z,27.62
2018-01-08T06:18:01.524Z,26.87
2018-01-08T06:20:29.088Z,26.80
2018-01-08T06:22:56.683Z,26.85
2018-01-08T06:25:25.056Z,29.27
2018-01-08T06:27:53.440Z,26.65
2018-01-08T06:30:21.770Z,27.48
2018-01-08T06:32:49.411Z,28.77
2018-01-08T06:35:16.986Z,31.37
2018-01-08T06:37:44.621Z,30.37
2018-01-08T06:40:12.241Z,31.73
2018-01-08T06:42:39.858Z,30.55
2018-01-08T06:45:07.437Z,29.58
2018-01-08T06:47:35.029Z,29.52
2018-01-08T06:50:03.422Z,29.17
2018-01-08T06:52:31.777Z,27.80
2018-01-08T06:54:59.395Z,29.15
2018-01-08T06:57:26.992Z,28.33
2018-01-08T06:59:54.591Z,27.52
2018-01-08T07:02:33.039Z,27.95
2018-01-08T07:05:00.651Z,29.58
2018-01-08T07:07:29.026Z,27.60
2018-01-08T07:09:56.596Z,30.50
2018-01-08T07:12:24.959Z,32.25
2018-01-08T07:14:53.328Z,28.85
2018-01-08T07:17:20.959Z,30.75
2018-01-08T07:19:48.543Z,31.42
2018-01-08T07:22:16.138Z,30.95
2018-01-08T07:24:44.485Z,32.35
2018-01-08T07:27:12.078Z,31.17
2018-01-08T07:29:39.682Z,31.65
2018-01-08T07:32:07.258Z,29.33
2018-01-08T07:34:34.876Z,27.25
2018-01-08T07:37:02.495Z,28.10
2018-01-08T07:39:30.884Z,26.62
2018-01-08T07:41:59.223Z,26.67
2018-01-08T07:44:26.822Z,27.08
2018-01-08T07:46:55.201Z,25.12
2018-01-08T07:49:23.553Z,26.00
2018-01-08T07:51:51.158Z,26.25
2018-01-08T07:54:18.728Z,25.25
2018-01-08T07:56:46.368Z,26.05
2018-01-08T07:59:14.010Z,26.87
2018-01-08T08:01:42.395Z,27.40
2018-01-08T08:04:10.780Z,27.30
2018-01-08T08:06:39.203Z,25.42
2018-01-08T08:09:06.787Z,26.60
2018-01-08T08:11:34.426Z,25.40
2018-01-08T08:14:02.021Z,25.62
2018-01-08T08:16:29.658Z,26.95
2018-01-08T08:18:57.247Z,26.42
2018-01-08T08:21:24.895Z,24.55
2018-01-08T08:23:52.559Z,25.30
2018-01-08T08:26:20.131Z,26.50
2018-01-08T08:28:47.742Z,26.23
2018-01-08T08:31:15.392Z,27.73
2018-01-08T08:33:42.998Z,27.23
2018-01-08T08:36:10.672Z,27.67
2018-01-08T08:38:38.261Z,27.15
2018-01-08T08:41:05.904Z,23.70
2018-01-08T08:43:34.273Z,24.73
2018-01-08T08:46:01.937Z,23.85
2018-01-08T08:48:29.510Z,24.08
2018-01-08T08:50:57.871Z,24.75
2018-01-08T08:53:26.256Z,24.37
2018-01-08T08:55:53.875Z,26.95
2018-01-08T08:58:21.478Z,26.17
2018-01-08T09:00:49.863Z,25.05
2018-01-08T09:03:18.229Z,23.10
2018-01-08T09:05:46.603Z,23.38
2018-01-08T09:08:15.201Z,22.27
2018-01-08T09:10:43.557Z,23.00
2018-01-08T09:13:11.186Z,21.75
2018-01-08T09:15:38.851Z,21.92
2018-01-08T09:18:06.419Z,22.40
2018-01-08T09:20:34.059Z,21.60
2018-01-08T09:23:01.695Z,22.92
2018-01-08T09:25:29.295Z,23.92
2018-01-08T09:27:56.936Z,23.58
2018-01-08T09:30:24.586Z,26.00
2018-01-08T09:32:52.184Z,28.08
2018-01-08T09:35:19.809Z,25.15
2018-01-08T09:37:47.439Z,25.30
2018-01-08T09:40:15.825Z,25.58
2018-01-08T09:42:44.170Z,23.95
2018-01-08T09:45:11.763Z,23.10
2018-01-08T09:47:40.121Z,23.87
2018-01-08T09:50:08.538Z,23.23
2018-01-08T09:52:36.152Z,24.70
2018-01-08T09:55:03.715Z,23.95
2018-01-08T09:57:31.311Z,26.25
2018-01-08T09:59:58.878Z,24.73
2018-01-08T10:02:25.963Z,25.65
2018-01-08T10:05:05.218Z,23.67
2018-01-08T10:07:44.599Z,23.38
2018-01-08T10:10:23.941Z,22.87
2018-01-08T10:13:03.575Z,25.58
2018-01-08T10:15:42.912Z,24.52
2018-01-08T10:18:22.243Z,24.90
2018-01-08T10:20:49.851Z,24.27
2018-01-08T10:23:17.483Z,25.80
2018-01-08T10:25:45.090Z,25.05
2018-01-08T10:28:13.496Z,24.25
2018-01-08T10:30:41.103Z,24.23
2018-01-08T10:33:08.696Z,25.67
2018-01-08T10:35:37.035Z,25.17
2018-01-08T10:38:04.634Z,24.65
2018-01-08T10:40:33.008Z,26.92
2018-01-08T10:43:06.995Z,25.27
2018-01-08T10:45:44.064Z,24.05
2018-01-08T10:48:17.404Z,24.10
2018-01-08T10:50:51.387Z,25.00
2018-01-08T10:53:27.590Z,23.95
2018-01-08T10:55:55.258Z,24.30
2018-01-08T10:58:22.890Z,24.12
2018-01-08T11:00:56.745Z,24.73
2018-01-08T11:03:30.077Z,24.35
2018-01-08T11:05:57.720Z,24.85
2018-01-08T11:08:25.326Z,23.25
2018-01-08T11:10:53.724Z,24.48
2018-01-08T11:13:21.288Z,24.50
2018-01-08T11:15:48.910Z,23.70
2018-01-08T11:18:16.485Z,23.12
2018-01-08T11:20:44.891Z,22.75
2018-01-08T11:23:12.479Z,23.73
2018-01-08T11:25:40.081Z,24.10
2018-01-08T11:28:08.467Z,24.17
2018-01-08T11:30:36.103Z,21.85
2018-01-08T11:33:03.746Z,22.27
2018-01-08T11:35:31.359Z,21.83
2018-01-08T11:37:58.978Z,21.85
2018-01-08T11:40:26.599Z,21.40
2018-01-08T11:42:55.016Z,22.37
2018-01-08T11:45:22.619Z,23.08
2018-01-08T11:47:50.247Z,21.00
2018-01-08T11:50:17.842Z,20.33
2018-01-08T11:52:45.456Z,19.07
2018-01-08T11:55:13.130Z,19.93
2018-01-08T11:57:40.767Z,18.77
2018-01-08T12:00:08.415Z,18.90
2018-01-08T12:02:36.021Z,21.53
2018-01-08T12:05:03.676Z,17.90
2018-01-08T12:07:31.301Z,18.73
2018-01-08T12:09:58.903Z,18.27
2018-01-08T12:12:27.336Z,19.00
2018-01-08T12:14:54.953Z,18.83
2018-01-08T12:17:23.336Z,18.90
2018-01-08T12:19:51.746Z,18.50
2018-01-08T12:22:19.383Z,17.50
2018-01-08T12:24:47.021Z,17.53
2018-01-08T12:27:14.655Z,18.50
2018-01-08T12:29:42.309Z,18.70
2018-01-08T12:32:09.906Z,17.93
2018-01-08T12:34:37.555Z,18.27
2018-01-08T12:37:09.372Z,18.37
2018-01-08T12:39:36.997Z,19.03
2018-01-08T12:42:04.612Z,18.77
2018-01-08T12:44:32.219Z,19.20
2018-01-08T12:47:00.584Z,19.50
2018-01-08T12:49:28.182Z,18.90
2018-01-08T12:51:55.835Z,19.90
2018-01-08T12:54:23.456Z,20.07
2018-01-08T12:56:51.115Z,18.70
2018-01-08T12:59:18.750Z,19.02
2018-01-08T13:01:46.461Z,19.83
2018-01-08T13:04:14.094Z,22.67
2018-01-08T13:06:41.737Z,19.10
2018-01-08T13:09:09.407Z,18.15
2018-01-08T13:11:37.094Z,18.67
2018-01-08T13:14:04.690Z,20.60
2018-01-08T13:16:33.091Z,19.77
2018-01-08T13:19:00.733Z,20.25
2018-01-08T13:21:28.379Z,19.95
2018-01-08T13:23:56.032Z,19.25
2018-01-08T13:26:24.402Z,19.20
2018-01-08T13:28:52.754Z,20.40
2018-01-08T13:31:20.418Z,20.12
2018-01-08T13:33:48.037Z,20.40
2018-01-08T13:36:15.637Z,20.37
2018-01-08T13:38:43.301Z,19.85
2018-01-08T13:41:10.917Z,21.15
2018-01-08T13:43:38.508Z,20.60
2018-01-08T13:46:06.115Z,21.73
2018-01-08T13:48:34.529Z,20.40
2018-01-08T13:51:02.174Z,21.10
2018-01-08T13:53:29.788Z,20.33
2018-01-08T13:55:57.418Z,21.45
2018-01-08T13:58:25.028Z,20.05
2018-01-08T14:00:53.410Z,20.48
2018-01-08T14:03:21.841Z,19.10
2018-01-08T14:05:49.423Z,19.75
2018-01-08T14:08:24.862Z,19.80
2018-01-08T14:10:52.519Z,20.70
2018-01-08T14:13:20.119Z,20.48
2018-01-08T14:15:48.488Z,20.08
2018-01-08T14:18:16.882Z,20.10
2018-01-08T14:20:44.523Z,20.70
2018-01-08T14:23:12.910Z,20.50
2018-01-08T14:25:41.312Z,20.62
2018-01-08T14:28:08.945Z,19.83
2018-01-08T14:30:37.337Z,20.75
2018-01-08T14:33:05.007Z,20.85
2018-01-08T14:35:32.664Z,20.65
2018-01-08T14:38:00.328Z,20.75
2018-01-08T14:40:27.946Z,20.67
2018-01-08T14:42:55.571Z,18.60
2018-01-08T14:45:23.248Z,20.65
2018-01-08T14:47:50.848Z,19.67
2018-01-08T14:50:18.465Z,20.15
2018-01-08T14:52:46.085Z,20.60
2018-01-08T14:55:14.473Z,20.37
2018-01-08T14:57:42.113Z,20.73
2018-01-08T15:00:09.749Z,20.58
2018-01-08T15:02:37.370Z,19.95
2018-01-08T15:05:04.997Z,20.95
2018-01-08T15:07:33.377Z,23.00
2018-01-08T15:10:01.784Z,21.55
2018-01-08T15:12:29.393Z,23.77
2018-01-08T15:14:57.065Z,22.45
2018-01-08T15:17:24.684Z,21.40
2018-01-08T15:19:52.291Z,23.15
2018-01-08T15:22:19.865Z,22.13
2018-01-08T15:24:48.224Z,22.77
2018-01-08T15:27:15.838Z,21.20
2018-01-08T15:29:43.508Z,21.25
2018-01-08T15:32:12.347Z,21.70
2018-01-08T15:34:39.921Z,20.40
2018-01-08T15:37:07.595Z,18.87
2018-01-08T15:39:35.249Z,19.52
2018-01-08T15:42:09.105Z,20.05
2018-01-08T15:44:36.751Z,19.55
2018-01-08T15:47:04.350Z,20.80
2018-01-08T15:49:31.977Z,21.40
2018-01-08T15:51:59.657Z,20.37
2018-01-08T15:54:27.289Z,20.92
2018-01-08T15:56:54.966Z,21.98
2018-01-08T15:59:22.558Z,22.45
2018-01-08T16:01:50.174Z,20.23
2018-01-08T16:04:17.832Z,21.65
2018-01-08T16:06:48.370Z,21.27
2018-01-08T16:09:16.749Z,21.75
2018-01-08T16:11:44.423Z,21.08
2018-01-08T16:14:12.021Z,23.12
2018-01-08T16:16:40.429Z,22.75
2018-01-08T16:19:08.040Z,22.98
2018-01-08T16:21:35.658Z,21.50
2018-01-08T16:24:03.256Z,22.15
2018-01-08T16:26:30.865Z,21.90
2018-01-08T16:28:58.514Z,21.55
2018-01-08T16:31:26.891Z,22.37
2018-01-08T16:33:54.476Z,20.42
2018-01-08T16:36:22.077Z,21.35
2018-01-08T16:38:49.702Z,21.48
2018-01-08T16:41:17.295Z,23.12
2018-01-08T16:43:44.893Z,25.40
2018-01-08T16:46:13.229Z,22.95
2018-01-08T16:48:40.806Z,23.05
2018-01-08T16:51:09.160Z,23.23
2018-01-08T16:53:36.739Z,22.45
2018-01-08T16:56:04.347Z,22.23
2018-01-08T16:58:31.969Z,22.02
2018-01-08T17:00:59.559Z,23.02
2018-01-08T17:03:27.137Z,23.12
2018-01-08T17:05:54.746Z,22.13
2018-01-08T17:08:22.363Z,22.98
2018-01-08T17:10:49.971Z,24.00
2018-01-08T17:13:18.335Z,21.67
2018-01-08T17:15:46.885Z,24.40
2018-01-08T17:18:19.378Z,22.13
2018-01-08T17:20:46.967Z,23.30
2018-01-08T17:23:16.382Z,23.00
2018-01-08T17:25:44.767Z,23.40
2018-01-08T17:28:12.381Z,23.87
2018-01-08T17:30:39.978Z,23.27
2018-01-08T17:33:08.415Z,23.08
2018-01-08T17:35:36.098Z,24.48
2018-01-08T17:38:03.736Z,46.67
2018-01-08T17:40:31.314Z,23.45
2018-01-08T17:42:58.951Z,37.20
2018-01-08T17:45:26.516Z,52.28
2018-01-08T17:47:54.136Z,33.78
2018-01-08T17:50:21.773Z,38.78
2018-01-08T17:52:49.351Z,26.17
2018-01-08T17:55:16.994Z,33.00
2018-01-08T17:57:45.393Z,30.42
2018-01-08T18:00:13.747Z,29.08
2018-01-08T18:02:41.330Z,31.50
2018-01-08T18:05:08.971Z,35.15
2018-01-08T18:07:36.610Z,32.17
2018-01-08T18:10:04.187Z,29.50
2018-01-08T18:12:31.809Z,30.12
2018-01-08T18:14:59.604Z,28.50
2018-01-08T18:17:27.240Z,31.17
2018-01-08T18:20:09.087Z,34.30
2018-01-08T18:22:37.474Z,27.95
2018-01-08T18:25:05.101Z,31.08
2018-01-08T18:27:33.529Z,28.05
2018-01-08T18:30:01.168Z,28.98
2018-01-08T18:32:29.584Z,31.73
2018-01-08T18:34:57.257Z,30.48
2018-01-08T18:37:24.960Z,38.80
2018-01-08T18:39:53.390Z,45.60
2018-01-08T18:42:21.048Z,66.65
2018-01-08T18:44:48.734Z,36.97
2018-01-08T18:47:16.445Z,34.25
2018-01-08T18:49:44.149Z,40.97
2018-01-08T18:52:11.793Z,44.60
2018-01-08T18:54:39.424Z,56.55
2018-01-08T18:57:07.121Z,52.83
2018-01-08T19:02:30.844Z,44.88
2018-01-08T19:04:58.565Z,37.28
2018-01-08T19:07:26.192Z,41.60
2018-01-08T19:09:54.727Z,46.67
2018-01-08T19:12:22.350Z,44.88
2018-01-08T19:14:50.055Z,46.28
2018-01-08T19:17:17.711Z,46.97
2018-01-08T19:19:45.333Z,48.10
2018-01-08T19:22:13.023Z,49.80
2018-01-08T19:24:46.737Z,49.03
2018-01-08T19:27:22.453Z,48.25
2018-01-08T19:30:06.997Z,60.70
2018-01-08T19:32:34.703Z,80.93
2018-01-08T19:35:02.401Z,67.47
2018-01-08T19:37:30.893Z,65.62
2018-01-08T19:39:58.667Z,72.47
2018-01-08T19:42:26.295Z,76.30
2018-01-08T19:44:53.981Z,58.60
2018-01-08T19:47:21.680Z,58.75
2018-01-08T19:49:49.764Z,68.43
2018-01-08T19:52:17.472Z,73.37
2018-01-08T19:54:45.938Z,74.72
2018-01-08T19:57:13.580Z,67.57
2018-01-08T19:59:41.227Z,62.17
2018-01-08T20:02:08.942Z,56.42
2018-01-08T20:04:37.344Z,59.42
2018-01-08T20:07:04.997Z,63.08
2018-01-08T20:09:32.722Z,61.70
2018-01-08T20:12:02.420Z,54.20
2018-01-08T20:14:30.095Z,60.10
2018-01-08T20:16:58.521Z,71.18
2018-01-08T20:19:26.228Z,63.03
2018-01-08T20:21:53.917Z,62.28
2018-01-08T20:24:21.615Z,58.47
2018-01-08T20:26:49.291Z,61.13
2018-01-08T20:29:17.026Z,59.75
2018-01-08T20:31:44.726Z,70.90
2018-01-08T20:34:12.447Z,66.60
2018-01-08T20:36:40.839Z,66.93
2018-01-08T20:39:08.515Z,69.93
2018-01-08T20:41:36.173Z,67.20
2018-01-08T20:44:03.874Z,68.62
2018-01-08T20:46:31.529Z,61.50
2018-01-08T20:48:59.239Z,74.45
2018-01-08T20:51:27.560Z,64.78
2018-01-08T20:53:55.213Z,66.47
2018-01-08T20:56:22.948Z,79.07
2018-01-08T20:58:50.628Z,106.12
2018-01-08T21:01:18.371Z,123.10
2018-01-08T21:03:46.002Z,114.30
2018-01-08T21:06:14.490Z,105.78
2018-01-08T21:08:42.312Z,94.85
2018-01-08T21:11:10.807Z,99.72
2018-01-08T21:13:38.519Z,79.47
2018-01-08T21:16:06.293Z,90.57
2018-01-08T21:18:33.935Z,92.07
2018-01-08T21:21:02.356Z,78.90
2018-01-08T21:23:30.065Z,82.07
2018-01-08T21:25:57.839Z,92.47
2018-01-08T21:28:26.245Z,90.00
2018-01-08T21:30:53.901Z,84.37
2018-01-08T21:33:21.566Z,96.30
2018-01-08T21:35:49.240Z,79.25
2018-01-08T21:38:16.928Z,76.65
2018-01-08T21:40:44.603Z,78.53
2018-01-08T21:43:12.296Z,75.75
2018-01-08T21:45:41.248Z,66.55
2018-01-08T21:48:09.048Z,90.85
2018-01-08T21:50:36.789Z,77.30
2018-01-08T21:53:04.336Z,64.20
2018-01-08T21:55:31.990Z,68.40
2018-01-08T21:57:59.703Z,63.28
2018-01-08T22:00:27.344Z,65.03
2018-01-08T22:02:54.971Z,68.50
2018-01-08T22:05:22.644Z,66.30
2018-01-08T22:07:50.341Z,64.35
2018-01-08T22:10:18.038Z,62.08
2018-01-08T22:12:45.757Z,62.03
2018-01-08T22:15:14.175Z,59.17
2018-01-08T22:17:41.882Z,62.38
2018-01-08T22:20:09.594Z,58.55
2018-01-08T22:22:37.329Z,60.12
2018-01-08T22:25:05.746Z,62.88
2018-01-08T22:27:33.357Z,71.75
2018-01-08T22:30:01.061Z,71.12
2018-01-08T22:32:28.811Z,64.82
2018-01-08T22:34:56.528Z,65.32
2018-01-08T22:37:24.258Z,64.87
2018-01-08T22:39:51.948Z,58.00
2018-01-08T22:42:19.576Z,57.50
2018-01-08T22:44:47.230Z,48.42
2018-01-08T22:47:14.886Z,56.28
2018-01-08T22:49:42.547Z,55.90
2018-01-08T22:52:10.304Z,58.45
2018-01-08T22:54:37.984Z,61.90
2018-01-08T22:57:05.782Z,55.17
2018-01-08T22:59:33.448Z,61.90
2018-01-08T23:02:01.124Z,57.55
2018-01-08T23:04:28.842Z,49.60
2018-01-08T23:06:56.647Z,54.45
2018-01-08T23:09:24.342Z,57.10
2018-01-08T23:11:52.017Z,55.83
2018-01-08T23:14:19.717Z,52.88
2018-01-08T23:16:47.356Z,57.03
2018-01-08T23:19:15.169Z,50.65
2018-01-08T23:21:43.623Z,54.78
2018-01-08T23:24:11.278Z,51.40
2018-01-08T23:26:38.942Z,51.70
2018-01-08T23:29:13.188Z,55.85
2018-01-08T23:31:41.628Z,51.15
2018-01-08T23:34:09.316Z,61.28
2018-01-08T23:36:36.913Z,58.47
2018-01-08T23:39:04.621Z,56.40
2018-01-08T23:41:32.234Z,56.95
2018-01-08T23:43:59.883Z,66.25
2018-01-08T23:46:28.291Z,80.78
2018-01-08T23:48:56.710Z,74.97
2018-01-08T23:51:24.364Z,57.75
2018-01-08T23:53:52.008Z,55.50
2018-01-08T23:56:19.656Z,56.00
2018-01-08T23:58:47.314Z,55.95
